Terminal Aerodrome Forecast
Issued by NWS Charleston, WV

Current Version | Previous Version | Graphics & Text | Print | Product List | Glossary On
Versions: 1 2 3 4 5 6 7 8 9 10 11 12 13 14 15 16 17 18 19 20 21 22 23 24 25 26 27 28
000
FTUS41 KRLX 270500
TAFBKW
TAF
KBKW 270532Z 2706/2806 29008KT P6SM OVC015
     FM271300 31008KT P6SM SKC
     FM272200 32008KT P6SM OVC020
     FM280100 32008KT P6SM OVC015=

USA.gov is the U.S. government's official web portal to all federal, state and local government web resources and services.